Time;durP1;ratioP1;P1;durP2;ratioP2;P2;SDS_P1;SDS_P2;PMS_P1;PMS_P2;Temp;Humidity;BMP_temperature;BMP_pressure;BME280_temperature;BME280_humidity;BME280_pressure;Samples;Min_cycle;Max_cycle;Signal;HPM_P1;HPM_P2
2022/09/11 00:01:28;;;;;;;17.07;15.27;;;19.00;99.90;;;;;;4996476;28;20265;-76
2022/09/11 00:03:55;;;;;;;19.73;16.87;;;18.90;99.90;;;;;;4996990;28;20569;-76
2022/09/11 00:06:22;;;;;;;16.80;14.97;;;18.90;99.90;;;;;;5015132;28;21312;-76
2022/09/11 00:08:52;;;;;;;16.60;14.90;;;18.80;99.90;;;;;;5014371;28;20692;-76
2022/09/11 00:11:20;;;;;;;16.97;15.27;;;18.80;99.90;;;;;;5014007;28;20740;-76
2022/09/11 00:13:50;;;;;;;16.33;14.77;;;18.80;99.90;;;;;;4996826;28;20581;-76
2022/09/11 00:16:25;;;;;;;16.53;14.33;;;18.70;99.90;;;;;;5014530;28;20991;-76
2022/09/11 00:18:52;;;;;;;14.53;13.00;;;18.60;99.90;;;;;;4996582;28;20750;-75
2022/09/11 00:21:19;;;;;;;13.67;12.00;;;18.60;99.90;;;;;;5013847;28;20565;-76
2022/09/11 00:23:48;;;;;;;15.40;12.97;;;18.60;99.90;;;;;;5014261;28;20585;-75
2022/09/11 00:26:16;;;;;;;12.03;10.63;;;18.50;99.90;;;;;;5014154;28;20613;-75
2022/09/11 00:28:42;;;;;;;12.83;11.53;;;18.50;99.90;;;;;;5013999;28;20743;-76
2022/09/11 00:31:15;;;;;;;13.40;11.80;;;18.50;99.90;;;;;;4996103;28;20623;-76
2022/09/11 00:33:41;;;;;;;12.10;10.90;;;18.40;99.90;;;;;;4996393;28;20577;-76
2022/09/11 00:36:12;;;;;;;13.30;11.93;;;18.40;99.90;;;;;;4995622;28;20577;-76
2022/09/11 00:38:38;;;;;;;12.53;11.23;;;18.30;99.90;;;;;;5013787;28;20699;-76
2022/09/11 00:41:14;;;;;;;13.87;12.60;;;18.30;99.90;;;;;;5013551;28;21145;-76
2022/09/11 00:44:02;;;;;;;12.50;11.30;;;18.20;99.90;;;;;;5013972;28;20667;-76
2022/09/11 00:46:40;;;;;;;12.97;11.87;;;18.20;99.90;;;;;;5013594;28;20953;-76
2022/09/11 00:49:48;;;;;;;13.20;12.00;;;18.20;99.90;;;;;;5012452;28;20596;-76
2022/09/11 00:52:22;;;;;;;14.50;11.63;;;18.20;99.90;;;;;;4914724;29;20593;-76
2022/09/11 00:54:59;;;;;;;12.53;11.40;;;18.10;99.90;;;;;;4998906;28;21008;-76
2022/09/11 00:57:31;;;;;;;14.53;12.87;;;18.10;99.90;;;;;;5012638;28;20588;-76
2022/09/11 01:00:00;;;;;;;13.80;12.50;;;18.10;99.90;;;;;;5012942;28;20613;-75
2022/09/11 01:02:29;;;;;;;13.23;11.93;;;18.10;99.90;;;;;;5013448;28;20600;-76
2022/09/11 01:04:56;;;;;;;14.70;11.60;;;18.10;99.90;;;;;;5013431;28;20620;-76
2022/09/11 01:07:24;;;;;;;13.50;12.10;;;18.10;99.90;;;;;;5013688;28;20646;-75
2022/09/11 01:09:51;;;;;;;15.30;13.80;;;18.10;99.90;;;;;;4979272;28;20601;-75
2022/09/11 01:12:38;;;;;;;12.90;11.70;;;18.10;99.90;;;;;;5011862;28;20690;-76
2022/09/11 01:15:18;;;;;;;12.80;11.60;;;18.10;99.90;;;;;;5013224;28;20619;-75
2022/09/11 01:17:55;;;;;;;16.30;13.20;;;18.10;99.90;;;;;;5013130;28;21205;-76
2022/09/11 01:20:32;;;;;;;15.03;13.40;;;18.10;99.90;;;;;;5011819;28;20573;-76
2022/09/11 01:23:21;;;;;;;12.30;11.20;;;18.20;99.90;;;;;;5012891;28;20576;-76
2022/09/11 01:26:09;;;;;;;14.97;13.67;;;18.20;99.90;;;;;;4979291;28;21213;-75
2022/09/11 01:28:58;;;;;;;13.93;12.53;;;18.30;99.90;;;;;;5013102;28;20589;-76
2022/09/11 01:31:29;;;;;;;12.70;11.60;;;18.30;99.90;;;;;;4995658;28;20674;-75
2022/09/11 01:34:01;;;;;;;15.67;13.77;;;18.40;99.90;;;;;;4995508;28;20576;-76
2022/09/11 01:36:30;;;;;;;13.40;11.73;;;18.40;99.90;;;;;;4995174;28;20627;-76
2022/09/11 01:39:03;;;;;;;13.77;12.37;;;18.50;99.90;;;;;;4978850;28;20597;-75
2022/09/11 01:41:49;;;;;;;14.20;12.80;;;18.50;99.90;;;;;;5012342;28;20928;-75
2022/09/11 01:44:21;;;;;;;15.10;13.50;;;18.60;99.90;;;;;;5012734;28;20569;-76
2022/09/11 01:46:50;;;;;;;17.20;15.50;;;18.60;99.90;;;;;;4995034;28;20581;-76
2022/09/11 01:49:24;;;;;;;15.67;14.00;;;18.60;99.90;;;;;;5012365;28;20600;-76
2022/09/11 01:51:55;;;;;;;14.40;13.10;;;18.70;99.90;;;;;;4994874;28;20553;-76
2022/09/11 01:54:28;;;;;;;14.53;13.20;;;18.70;99.90;;;;;;4978936;28;20569;-76
2022/09/11 01:57:03;;;;;;;14.30;12.90;;;18.80;99.90;;;;;;4994936;28;20573;-77
2022/09/11 01:59:36;;;;;;;13.37;12.00;;;18.80;99.90;;;;;;4994426;28;20609;-76
2022/09/11 02:02:08;;;;;;;13.53;12.27;;;18.90;99.90;;;;;;4994700;28;20631;-76
2022/09/11 02:04:46;;;;;;;14.33;12.93;;;18.90;99.90;;;;;;4994850;28;20616;-76
2022/09/11 02:07:30;;;;;;;13.70;12.50;;;18.90;99.90;;;;;;4994759;28;20972;-76
2022/09/11 02:10:05;;;;;;;13.30;11.83;;;18.90;99.90;;;;;;4994320;28;21001;-75
2022/09/11 02:12:46;;;;;;;15.83;13.10;;;19.00;99.90;;;;;;4978388;28;20572;-76
2022/09/11 02:15:14;;;;;;;13.10;11.80;;;19.00;99.90;;;;;;4994480;28;20665;-76
2022/09/11 02:17:47;;;;;;;15.13;13.07;;;19.10;99.90;;;;;;4994601;28;20995;-76
2022/09/11 02:20:13;;;;;;;14.87;13.47;;;19.10;99.90;;;;;;4994205;28;20689;-76
2022/09/11 02:22:42;;;;;;;15.07;13.67;;;19.10;99.90;;;;;;5011878;28;20673;-76
2022/09/11 02:25:08;;;;;;;16.53;15.03;;;19.10;99.90;;;;;;4994358;28;20636;-76
2022/09/11 02:27:35;;;;;;;16.47;15.07;;;19.10;99.90;;;;;;5005187;23;20672;-71
2022/09/11 02:30:02;;;;;;;16.17;14.30;;;19.10;99.90;;;;;;5024681;28;20629;-71
2022/09/11 02:32:31;;;;;;;16.70;15.20;;;19.10;99.90;;;;;;5024394;28;20586;-71
2022/09/11 02:34:58;;;;;;;17.50;15.80;;;19.10;99.90;;;;;;5025393;28;20607;-71
2022/09/11 02:37:35;;;;;;;17.03;15.40;;;19.10;99.90;;;;;;5017484;28;20614;-71
2022/09/11 02:40:16;;;;;;;18.97;17.00;;;19.10;99.90;;;;;;5013464;28;20587;-72
2022/09/11 02:43:00;;;;;;;15.03;13.73;;;19.10;99.90;;;;;;5013721;28;20797;-71
2022/09/11 02:45:53;;;;;;;16.00;14.40;;;19.10;99.90;;;;;;5013612;28;20689;-71
2022/09/11 02:48:37;;;;;;;17.30;15.60;;;19.10;99.90;;;;;;5013646;28;20738;-71
2022/09/11 02:51:20;;;;;;;16.93;15.43;;;19.10;99.90;;;;;;5013469;28;20561;-72
2022/09/11 02:54:07;;;;;;;19.33;17.33;;;19.10;99.90;;;;;;5031318;28;20612;-71
2022/09/11 02:56:51;;;;;;;15.67;14.27;;;19.10;99.90;;;;;;5013542;28;20592;-71
2022/09/11 02:59:29;;;;;;;17.87;16.37;;;19.10;99.90;;;;;;5034259;28;20576;-71
2022/09/11 03:02:00;;;;;;;17.80;15.90;;;19.10;99.90;;;;;;5034098;28;21191;-71
2022/09/11 03:04:28;;;;;;;20.63;17.80;;;19.20;99.90;;;;;;5017602;28;20619;-71
2022/09/11 03:06:57;;;;;;;20.30;18.50;;;19.10;99.90;;;;;;5035517;28;20642;-71
2022/09/11 03:09:22;;;;;;;21.13;19.10;;;19.10;99.90;;;;;;5017253;28;21112;-71
2022/09/11 03:11:53;;;;;;;19.07;17.37;;;19.10;99.90;;;;;;5001586;28;20600;-71
2022/09/11 03:14:20;;;;;;;21.57;19.47;;;19.20;99.90;;;;;;5017440;28;20579;-71
2022/09/11 03:16:46;;;;;;;21.40;19.23;;;19.10;99.90;;;;;;5017370;28;20928;-71
2022/09/11 03:19:12;;;;;;;21.30;19.30;;;19.20;99.90;;;;;;5017154;28;20568;-72
2022/09/11 03:21:38;;;;;;;23.23;20.83;;;19.10;99.90;;;;;;5017199;28;20565;-72
2022/09/11 03:24:05;;;;;;;19.03;17.23;;;19.10;99.90;;;;;;5017117;28;20174;-72
2022/09/11 03:26:33;;;;;;;21.30;19.23;;;19.10;99.90;;;;;;5017086;28;20738;-72
2022/09/11 03:28:59;;;;;;;24.73;19.80;;;19.10;99.90;;;;;;5017074;28;20577;-72
2022/09/11 03:31:24;;;;;;;20.97;18.20;;;19.10;99.90;;;;;;5016615;28;20575;-72
2022/09/11 03:33:51;;;;;;;20.60;18.40;;;19.10;99.90;;;;;;5034841;28;20167;-72
2022/09/11 03:36:18;;;;;;;25.00;19.60;;;19.10;99.90;;;;;;5033422;28;20273;-71
2022/09/11 03:38:44;;;;;;;22.50;20.10;;;19.10;99.90;;;;;;5002965;28;20981;-72
2022/09/11 03:41:10;;;;;;;22.83;20.60;;;19.00;99.90;;;;;;5001972;28;20669;-72
2022/09/11 03:43:36;;;;;;;23.20;20.87;;;19.00;99.90;;;;;;4997210;28;20573;-72
2022/09/11 03:46:02;;;;;;;22.27;20.00;;;19.00;99.90;;;;;;4988055;28;20603;-72
2022/09/11 03:48:29;;;;;;;22.90;20.57;;;19.00;99.90;;;;;;5008527;28;21153;-72
2022/09/11 03:50:55;;;;;;;25.93;22.57;;;19.00;99.90;;;;;;5016530;28;20572;-72
2022/09/11 03:53:21;;;;;;;23.77;21.47;;;19.00;99.90;;;;;;5000289;28;20170;-72
2022/09/11 03:55:48;;;;;;;23.67;21.27;;;19.00;99.90;;;;;;5001749;28;20601;-72
2022/09/11 03:58:16;;;;;;;24.37;21.90;;;19.00;99.90;;;;;;4996921;28;20608;-72
2022/09/11 04:00:43;;;;;;;25.23;22.67;;;19.00;99.90;;;;;;4996349;28;20948;-72
2022/09/11 04:03:14;;;;;;;22.33;20.13;;;18.90;99.90;;;;;;5014038;28;21146;-72
2022/09/11 04:05:54;;;;;;;24.10;21.70;;;18.90;99.90;;;;;;4996766;28;20621;-72
2022/09/11 04:08:20;;;;;;;23.47;20.90;;;19.00;99.90;;;;;;4996825;28;20561;-73
2022/09/11 04:10:45;;;;;;;23.40;20.37;;;18.90;99.90;;;;;;4995411;28;20565;-72
2022/09/11 04:13:11;;;;;;;25.07;22.67;;;19.00;99.90;;;;;;4996203;28;20182;-73
2022/09/11 04:15:37;;;;;;;23.23;20.87;;;18.90;99.90;;;;;;5012879;28;20175;-72
2022/09/11 04:18:07;;;;;;;27.70;23.23;;;19.00;99.90;;;;;;4996696;28;20170;-72
2022/09/11 04:20:37;;;;;;;26.20;22.70;;;19.00;99.90;;;;;;4996414;28;20170;-72
2022/09/11 04:23:03;;;;;;;25.07;22.57;;;18.90;99.90;;;;;;4996393;28;20569;-72
2022/09/11 04:25:30;;;;;;;24.83;22.00;;;18.90;99.90;;;;;;4996228;28;20620;-73
2022/09/11 04:27:56;;;;;;;24.27;21.77;;;18.90;99.90;;;;;;4994696;28;20950;-72
2022/09/11 04:30:22;;;;;;;30.07;22.23;;;18.90;99.90;;;;;;5012336;28;20615;-72
2022/09/11 04:32:49;;;;;;;23.67;21.27;;;18.90;99.90;;;;;;4996008;28;20206;-72
2022/09/11 04:35:15;;;;;;;26.03;22.40;;;18.90;99.90;;;;;;4996335;28;20605;-72
2022/09/11 04:37:49;;;;;;;26.60;22.50;;;18.90;99.90;;;;;;4994759;28;20633;-72
2022/09/11 04:40:14;;;;;;;26.07;22.53;;;18.80;99.90;;;;;;5010752;28;21000;-72
2022/09/11 04:42:42;;;;;;;27.77;21.73;;;18.80;99.90;;;;;;4995275;28;20177;-72
2022/09/11 04:45:09;;;;;;;26.67;23.80;;;18.80;99.90;;;;;;4994486;28;20632;-72
2022/09/11 04:47:35;;;;;;;24.53;21.97;;;18.80;99.90;;;;;;5013140;28;20613;-72
2022/09/11 04:50:01;;;;;;;23.13;19.13;;;18.80;99.90;;;;;;4995099;28;20585;-72
2022/09/11 04:52:27;;;;;;;23.87;21.30;;;18.80;99.90;;;;;;4988066;28;20590;-72
2022/09/11 04:54:53;;;;;;;22.07;19.80;;;18.80;99.90;;;;;;4992506;28;20284;-72
2022/09/11 04:57:19;;;;;;;25.37;22.67;;;18.80;99.90;;;;;;4995260;28;20244;-72
2022/09/11 04:59:44;;;;;;;27.07;22.70;;;18.80;99.90;;;;;;5010319;28;20174;-72
2022/09/11 05:02:12;;;;;;;25.60;20.80;;;18.80;99.90;;;;;;4993577;28;20174;-72
2022/09/11 05:04:41;;;;;;;26.07;21.97;;;18.80;99.90;;;;;;4994826;28;21244;-72
2022/09/11 05:07:07;;;;;;;33.43;25.80;;;18.70;99.90;;;;;;4979298;28;20704;-73
2022/09/11 05:09:34;;;;;;;33.90;26.57;;;18.80;99.90;;;;;;4993699;28;20182;-72
2022/09/11 05:12:01;;;;;;;32.27;23.87;;;18.80;99.90;;;;;;4995499;28;20975;-73
2022/09/11 05:14:34;;;;;;;38.80;27.30;;;18.70;99.90;;;;;;5004533;28;20581;-73
2022/09/11 05:17:01;;;;;;;35.00;26.20;;;18.80;99.90;;;;;;5005902;28;20621;-73
2022/09/11 05:19:29;;;;;;;41.73;29.97;;;18.80;99.90;;;;;;4994345;28;21158;-73
2022/09/11 05:21:54;;;;;;;37.67;27.30;;;18.70;99.90;;;;;;4977976;28;20640;-73
2022/09/11 05:24:21;;;;;;;40.47;26.63;;;18.80;99.90;;;;;;4994149;28;20175;-72
2022/09/11 05:26:47;;;;;;;37.47;25.47;;;18.80;99.90;;;;;;4993180;28;20655;-72
2022/09/11 05:29:15;;;;;;;43.10;30.00;;;18.80;99.90;;;;;;4991569;28;20230;-72
2022/09/11 05:31:46;;;;;;;43.33;30.63;;;18.70;99.90;;;;;;4965231;28;20597;-72
2022/09/11 05:34:14;;;;;;;38.63;29.60;;;18.70;99.90;;;;;;5008078;28;20646;-72
2022/09/11 05:36:40;;;;;;;47.93;32.80;;;18.70;99.90;;;;;;4993003;28;20724;-73
2022/09/11 05:39:08;;;;;;;48.50;33.23;;;18.70;99.90;;;;;;5011682;28;20604;-72
2022/09/11 05:41:34;;;;;;;48.20;32.50;;;18.70;99.90;;;;;;4993526;28;21349;-73
2022/09/11 05:44:00;;;;;;;45.13;32.10;;;18.70;99.90;;;;;;4994006;28;20615;-73
2022/09/11 05:46:27;;;;;;;42.87;29.10;;;18.70;99.90;;;;;;4993181;28;20214;-72
2022/09/11 05:48:58;;;;;;;44.40;31.30;;;18.80;99.90;;;;;;4993732;28;20678;-73
2022/09/11 05:51:23;;;;;;;43.40;31.47;;;18.80;99.90;;;;;;4993589;28;20593;-73
2022/09/11 05:53:54;;;;;;;45.53;32.50;;;18.80;99.90;;;;;;4990748;28;20598;-72
2022/09/11 05:56:22;;;;;;;46.70;31.83;;;18.80;99.90;;;;;;4978677;28;20201;-72
2022/09/11 05:58:52;;;;;;;49.87;33.57;;;18.80;99.90;;;;;;4994007;28;20625;-72
2022/09/11 06:01:22;;;;;;;44.27;32.43;;;18.80;99.90;;;;;;4992175;28;20593;-72
2022/09/11 06:03:56;;;;;;;48.43;33.57;;;18.80;99.90;;;;;;4993107;28;20605;-71
2022/09/11 06:06:24;;;;;;;48.77;33.10;;;18.80;99.90;;;;;;5009626;28;21013;-71
2022/09/11 06:08:54;;;;;;;53.47;32.40;;;18.80;99.90;;;;;;4993357;28;20684;-71
2022/09/11 06:11:21;;;;;;;46.07;32.50;;;18.80;99.90;;;;;;4993205;28;20585;-71
2022/09/11 06:13:48;;;;;;;46.10;33.57;;;18.80;99.90;;;;;;4992843;28;20652;-71
2022/09/11 06:16:20;;;;;;;44.03;31.93;;;18.80;99.90;;;;;;4985956;28;20638;-71
2022/09/11 06:18:47;;;;;;;44.43;30.53;;;18.80;99.90;;;;;;4994417;28;21150;-71
2022/09/11 06:21:18;;;;;;;39.47;29.80;;;18.80;99.90;;;;;;4992856;28;21034;-72
2022/09/11 06:23:52;;;;;;;33.57;26.10;;;18.80;99.90;;;;;;4989060;28;20616;-72
2022/09/11 06:26:21;;;;;;;33.23;25.43;;;18.80;99.90;;;;;;4993728;28;20728;-72
2022/09/11 06:28:47;;;;;;;31.00;25.33;;;18.80;99.90;;;;;;4992008;28;20600;-72
2022/09/11 06:31:16;;;;;;;29.33;23.20;;;18.80;99.90;;;;;;4992074;28;20931;-72
2022/09/11 06:33:42;;;;;;;27.70;23.50;;;18.80;99.90;;;;;;4972874;28;20593;-72
2022/09/11 06:36:16;;;;;;;33.27;24.17;;;18.80;99.90;;;;;;5010641;28;20609;-72
2022/09/11 06:38:43;;;;;;;31.87;25.97;;;18.80;99.90;;;;;;4991898;28;20604;-72
2022/09/11 06:41:14;;;;;;;35.17;26.53;;;18.90;99.90;;;;;;4977460;28;20600;-72
2022/09/11 06:43:42;;;;;;;36.73;26.63;;;18.90;99.90;;;;;;4991366;28;20599;-72
2022/09/11 06:46:13;;;;;;;36.93;25.83;;;18.90;99.90;;;;;;4982962;28;20645;-72
2022/09/11 06:48:43;;;;;;;35.17;25.23;;;18.90;99.90;;;;;;4993391;28;20617;-72
2022/09/11 06:51:11;;;;;;;30.63;24.00;;;18.90;99.90;;;;;;4993740;28;20592;-72
2022/09/11 06:53:39;;;;;;;31.03;25.83;;;19.00;99.90;;;;;;4993652;28;20632;-71
2022/09/11 06:56:11;;;;;;;36.30;25.97;;;19.00;99.90;;;;;;5007609;28;20998;-71
2022/09/11 06:58:40;;;;;;;28.30;24.30;;;19.00;99.90;;;;;;4992079;28;20700;-71
2022/09/11 07:01:14;;;;;;;33.00;25.03;;;19.00;99.90;;;;;;5010359;28;20589;-72
2022/09/11 07:03:44;;;;;;;28.10;24.40;;;19.00;99.90;;;;;;4988123;28;20605;-72
2022/09/11 07:06:11;;;;;;;26.33;22.53;;;19.10;99.90;;;;;;5009567;28;20648;-72
2022/09/11 07:08:40;;;;;;;28.40;23.30;;;19.10;99.90;;;;;;5002389;28;20974;-72
2022/09/11 07:11:07;;;;;;;27.73;21.90;;;19.10;99.90;;;;;;5008778;28;20647;-72
2022/09/11 07:13:35;;;;;;;27.43;23.17;;;19.10;99.90;;;;;;4975659;28;20608;-72
2022/09/11 07:16:05;;;;;;;29.63;22.70;;;19.10;99.90;;;;;;4991685;28;20621;-72
2022/09/11 07:18:38;;;;;;;29.93;23.50;;;19.10;99.90;;;;;;4981317;28;20597;-72
2022/09/11 07:21:10;;;;;;;30.10;23.37;;;19.20;99.90;;;;;;4992647;28;20608;-72
2022/09/11 07:23:39;;;;;;;29.80;22.83;;;19.20;99.90;;;;;;4993042;28;20608;-72
2022/09/11 07:26:07;;;;;;;25.07;21.40;;;19.20;99.90;;;;;;4989322;28;20641;-72
2022/09/11 07:28:34;;;;;;;27.80;22.07;;;19.20;99.90;;;;;;5004843;28;21154;-72
2022/09/11 07:31:12;;;;;;;26.27;21.00;;;19.20;99.90;;;;;;4991541;28;20592;-72
2022/09/11 07:33:41;;;;;;;27.73;23.23;;;19.20;99.90;;;;;;4985904;28;20596;-72
2022/09/11 07:36:31;;;;;;;27.97;21.93;;;19.20;99.90;;;;;;4975684;28;21113;-72
2022/09/11 07:38:58;;;;;;;27.90;22.67;;;19.20;99.90;;;;;;4987898;28;20594;-72
2022/09/11 07:41:33;;;;;;;33.17;24.50;;;19.20;99.90;;;;;;4993176;28;21010;-72
2022/09/11 07:44:03;;;;;;;28.80;23.87;;;19.30;99.90;;;;;;4961458;28;20609;-72
2022/09/11 07:46:31;;;;;;;27.20;23.20;;;19.30;99.90;;;;;;4969666;28;20999;-72
2022/09/11 07:49:02;;;;;;;27.00;21.70;;;19.30;99.90;;;;;;5000892;28;21150;-73
2022/09/11 07:51:29;;;;;;;28.80;21.63;;;19.30;99.90;;;;;;4979689;28;20969;-73
2022/09/11 07:53:58;;;;;;;24.67;21.60;;;19.30;99.90;;;;;;4996435;28;20593;-73
2022/09/11 07:56:27;;;;;;;25.77;21.87;;;19.30;99.90;;;;;;5005721;28;20639;-73
2022/09/11 07:58:54;;;;;;;28.07;20.77;;;19.30;99.90;;;;;;4995277;28;20620;-73
2022/09/11 08:01:28;;;;;;;24.87;21.40;;;19.30;99.90;;;;;;4988993;28;20973;-73
2022/09/11 08:04:02;;;;;;;21.20;18.63;;;19.40;99.90;;;;;;5019934;28;20696;-73
2022/09/11 08:06:31;;;;;;;21.70;18.73;;;19.40;99.90;;;;;;4996725;28;20639;-73
2022/09/11 08:09:02;;;;;;;21.27;18.90;;;19.50;99.90;;;;;;4996421;28;20577;-73
2022/09/11 08:11:35;;;;;;;25.10;19.90;;;19.50;99.90;;;;;;4991989;28;20670;-73
2022/09/11 08:14:01;;;;;;;17.40;15.60;;;19.60;99.90;;;;;;4984186;28;20590;-74
2022/09/11 08:16:28;;;;;;;19.07;17.07;;;19.70;99.90;;;;;;4999346;28;20687;-74
2022/09/11 08:18:56;;;;;;;20.00;17.17;;;19.70;99.90;;;;;;4996577;28;20659;-73
2022/09/11 08:21:23;;;;;;;22.70;16.03;;;19.80;99.90;;;;;;4979980;28;20944;-73
2022/09/11 08:23:49;;;;;;;19.87;17.70;;;19.90;99.90;;;;;;4996588;28;20631;-73
2022/09/11 08:26:29;;;;;;;20.80;18.60;;;19.90;99.90;;;;;;5012889;28;20640;-73
2022/09/11 08:28:58;;;;;;;21.20;18.27;;;19.90;99.90;;;;;;4986596;23;21036;-77
2022/09/11 08:31:27;;;;;;;18.80;16.20;;;19.90;99.90;;;;;;4952926;28;20692;-77
2022/09/11 08:33:56;;;;;;;16.97;15.23;;;20.00;99.90;;;;;;4945609;28;20593;-77
2022/09/11 08:36:23;;;;;;;16.10;14.40;;;20.10;99.90;;;;;;4960917;28;20585;-77
2022/09/11 08:38:51;;;;;;;17.67;15.87;;;20.20;99.90;;;;;;4954124;28;21209;-77
2022/09/11 08:41:23;;;;;;;17.03;15.33;;;20.20;99.90;;;;;;4965481;28;21069;-77
2022/09/11 08:43:55;;;;;;;17.47;15.67;;;20.20;99.90;;;;;;4961623;28;20937;-77
2022/09/11 08:46:25;;;;;;;18.43;16.50;;;20.30;99.90;;;;;;4957331;28;20677;-77
2022/09/11 08:49:20;;;;;;;17.23;15.43;;;20.30;99.90;;;;;;4953266;29;20607;-77
2022/09/11 08:51:48;;;;;;;17.10;14.90;;;20.30;99.90;;;;;;4956928;28;20551;-77
2022/09/11 08:54:30;;;;;;;17.43;15.27;;;20.30;99.90;;;;;;4957423;28;20622;-77
2022/09/11 08:57:41;;;;;;;16.30;14.37;;;20.30;99.90;;;;;;4943409;28;20935;-77
2022/09/11 09:00:30;;;;;;;14.93;13.40;;;20.30;99.90;;;;;;4981965;28;20720;-77
2022/09/11 09:03:22;;;;;;;14.57;13.20;;;20.40;99.90;;;;;;4934155;29;21209;-77
2022/09/11 09:06:08;;;;;;;16.90;13.17;;;20.50;99.90;;;;;;4919102;29;20731;-77
2022/09/11 09:09:12;;;;;;;17.10;14.37;;;20.60;99.90;;;;;;4937112;29;21214;-77
2022/09/11 09:11:57;;;;;;;16.03;14.33;;;20.60;99.90;;;;;;4908578;29;20642;-77
2022/09/11 09:14:46;;;;;;;15.57;14.03;;;20.70;99.90;;;;;;4930229;28;20588;-77
2022/09/11 09:17:51;;;;;;;14.00;11.80;;;20.70;99.90;;;;;;4953598;28;20583;-77
2022/09/11 09:20:21;;;;;;;16.97;14.17;;;20.70;99.90;;;;;;4940810;28;20594;-77
2022/09/11 09:22:57;;;;;;;16.23;14.57;;;20.70;99.90;;;;;;4975916;28;20566;-77
2022/09/11 09:25:25;;;;;;;18.07;16.03;;;20.80;99.90;;;;;;4976082;28;20720;-77
2022/09/11 09:28:31;;;;;;;18.23;14.30;;;20.80;99.90;;;;;;4975685;28;21248;-77
2022/09/11 09:31:05;;;;;;;17.07;15.23;;;20.90;99.90;;;;;;4989181;28;20594;-77
2022/09/11 09:33:53;;;;;;;14.07;12.70;;;20.90;99.90;;;;;;4981207;28;20581;-78
2022/09/11 09:36:28;;;;;;;16.90;15.20;;;21.00;99.90;;;;;;4975647;28;20570;-78
2022/09/11 09:38:55;;;;;;;15.47;13.57;;;21.00;99.90;;;;;;4975798;28;20993;-76
2022/09/11 09:41:48;;;;;;;17.10;15.30;;;21.00;99.90;;;;;;4975387;28;20562;-78
2022/09/11 09:44:32;;;;;;;14.17;12.67;;;21.00;99.90;;;;;;4975971;28;20913;-77
2022/09/11 09:46:58;;;;;;;18.57;16.17;;;21.10;99.90;;;;;;4993006;28;20626;-77
2022/09/11 09:49:32;;;;;;;18.40;16.50;;;21.10;99.90;;;;;;4959264;28;20927;-77
2022/09/11 09:52:04;;;;;;;17.77;15.93;;;21.10;99.90;;;;;;4991751;28;20577;-77
2022/09/11 09:54:35;;;;;;;17.23;15.43;;;21.00;99.90;;;;;;4993002;28;21139;-78
2022/09/11 09:57:09;;;;;;;16.40;14.70;;;21.00;99.90;;;;;;4990463;28;20571;-76
2022/09/11 09:59:54;;;;;;;17.73;15.83;;;21.00;99.90;;;;;;4954797;28;21008;-78
2022/09/11 10:02:53;;;;;;;18.90;16.20;;;21.00;99.90;;;;;;4955076;28;20587;-79
2022/09/11 10:05:42;;;;;;;17.43;14.83;;;21.10;99.90;;;;;;4973157;28;20953;-81
2022/09/11 10:08:38;;;;;;;16.20;14.27;;;21.10;99.90;;;;;;4917604;29;21210;-82
2022/09/11 10:11:10;;;;;;;17.97;15.53;;;21.30;99.90;;;;;;4949197;29;20568;-79
2022/09/11 10:13:40;;;;;;;18.23;16.23;;;21.50;99.90;;;;;;4953662;29;20918;-78
2022/09/11 10:16:19;;;;;;;16.27;14.57;;;21.70;99.90;;;;;;4952870;28;20583;-80
2022/09/11 10:18:46;;;;;;;16.80;14.90;;;21.80;99.90;;;;;;4972868;28;20936;-80
2022/09/11 10:21:11;;;;;;;17.83;16.03;;;22.10;99.90;;;;;;4952381;29;20631;-80
2022/09/11 10:23:57;;;;;;;18.17;16.47;;;22.30;99.90;;;;;;4955233;28;20571;-79
2022/09/11 10:26:44;;;;;;;15.27;13.77;;;22.50;99.90;;;;;;4953363;28;20211;-80
2022/09/11 10:29:23;;;;;;;16.07;14.47;;;22.80;99.90;;;;;;4972464;28;21058;-80
2022/09/11 10:31:54;;;;;;;16.43;14.23;;;23.20;99.90;;;;;;4971664;28;20587;-80
2022/09/11 10:34:24;;;;;;;18.07;13.30;;;23.50;99.90;;;;;;4972656;28;20927;-80
2022/09/11 10:37:01;;;;;;;16.10;13.50;;;23.90;99.90;;;;;;4972904;28;20575;-80
2022/09/11 10:39:31;;;;;;;16.07;14.37;;;24.20;99.90;;;;;;4972257;28;20567;-81
2022/09/11 10:42:06;;;;;;;15.13;13.63;;;24.70;99.90;;;;;;4955359;28;20575;-82
2022/09/11 10:44:32;;;;;;;16.47;14.87;;;25.10;99.90;;;;;;4955515;28;20602;-80
2022/09/11 10:47:03;;;;;;;15.10;13.70;;;25.50;99.90;;;;;;4958601;28;20974;-79
2022/09/11 10:49:29;;;;;;;17.50;15.73;;;25.90;99.90;;;;;;4972025;28;20569;-78
2022/09/11 10:52:00;;;;;;;17.07;15.50;;;26.30;99.90;;;;;;4939272;28;20626;-79
2022/09/11 10:54:32;;;;;;;17.10;15.60;;;26.60;99.90;;;;;;4972327;28;20577;-77
2022/09/11 10:57:16;;;;;;;16.97;15.43;;;26.90;99.90;;;;;;4972614;28;20680;-81
2022/09/11 11:00:21;;;;;;;17.03;15.37;;;27.00;99.90;;;;;;4951670;28;20583;-78
2022/09/11 11:02:59;;;;;;;16.57;15.10;;;27.10;99.90;;;;;;4944066;28;20590;-79
2022/09/11 11:05:43;;;;;;;15.10;13.70;;;27.30;99.90;;;;;;4972001;28;20638;-78
2022/09/11 11:08:28;;;;;;;13.60;12.30;;;27.40;99.90;;;;;;4972317;28;20632;-79
2022/09/11 11:11:13;;;;;;;15.20;13.80;;;27.40;99.90;;;;;;4971809;28;20663;-79
2022/09/11 11:13:49;;;;;;;15.63;14.20;;;27.40;99.90;;;;;;4972353;28;20547;-78
2022/09/11 11:16:27;;;;;;;15.10;13.67;;;27.40;99.90;;;;;;4951855;29;21010;-78
2022/09/11 11:18:59;;;;;;;12.33;11.33;;;27.30;99.90;;;;;;4966858;28;21020;-79
2022/09/11 11:21:31;;;;;;;13.60;12.20;;;27.20;99.90;;;;;;4957103;28;20568;-79
2022/09/11 11:24:12;;;;;;;13.27;11.97;;;27.30;99.90;;;;;;4980145;28;21111;-79
2022/09/11 11:26:52;;;;;;;12.93;11.77;;;27.40;99.90;;;;;;4963998;28;20637;-79
2022/09/11 11:29:29;;;;;;;13.73;12.23;;;27.60;99.90;;;;;;4978922;28;20652;-79
2022/09/11 11:32:26;;;;;;;12.40;11.30;;;27.90;99.90;;;;;;4969323;28;20671;-80
2022/09/11 11:35:11;;;;;;;12.03;10.83;;;28.00;99.90;;;;;;4938553;28;20588;-79
2022/09/11 11:37:41;;;;;;;12.93;11.70;;;28.20;99.90;;;;;;4960785;28;20626;-81
2022/09/11 11:40:28;;;;;;;9.90;8.70;;;28.50;99.90;;;;;;4955032;29;21180;-81
2022/09/11 11:43:04;;;;;;;12.43;11.27;;;28.80;99.90;;;;;;4955392;29;20570;-82
2022/09/11 11:45:37;;;;;;;11.13;10.23;;;29.10;99.90;;;;;;4974487;28;20675;-81
2022/09/11 11:48:24;;;;;;;11.00;10.00;;;29.30;99.90;;;;;;4975708;28;20591;-80
2022/09/11 11:50:54;;;;;;;12.40;11.40;;;29.40;99.90;;;;;;4960901;28;20591;-80
2022/09/11 11:53:28;;;;;;;11.50;9.50;;;29.70;99.90;;;;;;4982392;28;20589;-82
2022/09/11 11:56:18;;;;;;;12.93;10.33;;;29.80;99.90;;;;;;4966127;28;21100;-81
2022/09/11 11:58:59;;;;;;;9.87;8.97;;;30.00;99.90;;;;;;4964824;28;20632;-81
2022/09/11 12:01:35;;;;;;;10.50;9.53;;;30.10;99.90;;;;;;4955787;28;20578;-81
2022/09/11 12:04:32;;;;;;;8.77;7.90;;;30.30;99.90;;;;;;4975559;28;20604;-81
2022/09/11 12:06:58;;;;;;;9.77;8.77;;;30.40;99.90;;;;;;4969626;28;21057;-81
2022/09/11 12:09:26;;;;;;;8.60;7.90;;;30.50;99.90;;;;;;4955850;28;20735;-82
2022/09/11 12:11:54;;;;;;;9.60;8.70;;;30.50;99.90;;;;;;4975238;28;20619;-83
2022/09/11 12:14:30;;;;;;;6.97;6.27;;;30.40;99.90;;;;;;4975670;28;20979;-82
2022/09/11 12:17:14;;;;;;;9.50;8.70;;;30.40;99.80;;;;;;4954691;29;20608;-83
2022/09/11 12:20:12;;;;;;;7.30;6.60;;;30.40;99.90;;;;;;4967132;28;21113;-82
2022/09/11 12:22:41;;;;;;;10.93;9.83;;;30.20;99.90;;;;;;4957867;28;20575;-82
2022/09/11 12:25:22;;;;;;;8.07;7.37;;;30.30;99.90;;;;;;4974971;28;21172;-82
2022/09/11 12:27:52;;;;;;;7.03;6.33;;;30.20;98.40;;;;;;4923100;28;20643;-82
2022/09/11 12:30:19;;;;;;;7.60;6.80;;;30.20;99.20;;;;;;4988225;28;20578;-83
2022/09/11 12:33:01;;;;;;;7.33;6.73;;;30.10;98.60;;;;;;4967504;28;20607;-83
2022/09/11 12:35:49;;;;;;;8.17;7.47;;;29.90;96.90;;;;;;4963779;28;20579;-82
2022/09/11 12:38:34;;;;;;;6.10;5.50;;;29.70;97.80;;;;;;4975326;28;20627;-83
2022/09/11 12:41:12;;;;;;;5.17;4.77;;;29.70;96.60;;;;;;4968215;28;20606;-83
2022/09/11 12:43:40;;;;;;;6.03;5.53;;;29.50;97.00;;;;;;4964160;28;20595;-83
2022/09/11 12:46:12;;;;;;;7.57;6.87;;;29.50;97.40;;;;;;4953138;28;20664;-84
2022/09/11 12:48:40;;;;;;;5.53;5.07;;;29.30;96.80;;;;;;4962297;28;20599;-84
2022/09/11 12:51:21;;;;;;;6.70;5.43;;;29.20;97.00;;;;;;4953970;29;20970;-84
2022/09/11 12:53:52;;;;;;;6.07;4.47;;;29.00;96.90;;;;;;4978126;28;20570;-84
2022/09/11 12:56:21;;;;;;;5.00;4.50;;;29.00;97.00;;;;;;4923973;28;20588;-81
2022/09/11 12:58:55;;;;;;;5.27;4.77;;;29.00;96.90;;;;;;4979328;28;20591;-81